Decoded Metar for KMHS (MOUNT SHASTA in CA, USA) (IATA:MHS) | Meteo·Mobile Aviation Weather
aviador You're here:

KMHS Decoded Metar

MOUNT SHASTA in CA, USA
Report Time2019-03-23 00:41:00
UTC Time2019-03-23 00:56:58
Flight Rules vfr VFR
Wind120° at 04 kt
W.Rank120° ranks 7
Current wind is above 120° avg. (3.8)
Visibility9999 m
Phenomena:N/A
Clouds:Few 027 Hf
Broken 040 Hf
Overcast 048 Hf
Expected CloudBase > 400 ft AGL from Temp-Dew spread
Ceiling4,000 ft
Temp04°C (ISA -4)
Dew Point03°C (93% RH)
AAT1.1°C
QNH1019 hPa
Density Alt2,972 ft
Elevation3,537 ft
Report Wrong Elevation
Raw Report
KMHS 230041Z AUTO 12004KT 10SM FEW027 BKN040 OVC048 04/03 A3008=

Extra information for KMHS:More info

Metar Taf Metar & Taf Last 4 Metars F.Rules Stats Wind Profile Meteogram Temp Stats Airport Information Weather charts Add Link Nearby VenuesMetar ALERT Operation Metar Decoded Social comments

AIRNAV info for KMHS